Terminal Aerodrome Forecast
Issued by NWS

Home | Current Version | Previous Version | Graphics & Text | Print | Product List | Glossary On
Versions: 1 2 3 4 5 6 7 8 9 10 11 12 13 14 15 16 17 18
000
FTUS41 KCLE 311000 AAA
TAFFDY
TAF AMD
KFDY 311003Z 3110/0106 23010KT P6SM VCSH SCT012 BKN035
     FM311300 23010KT P6SM SCT008 OVC012
      TEMPO 3113/3116 OVC008
     FM311800 24010KT P6SM BKN020
     FM312100 24008KT P6SM BKN035=

USA.gov is the U.S. government's official web portal to all federal, state and local government web resources and services.